Black Creek, New York
Current Conditions -  °F | °C
As of 4:35 PM on Saturday 25 Oct 2014 (Local Time) from KOLE Reporting Station
Overcast Overcast  
Wind Chill: 14°   Ceiling: 3200
Heat Index: 14°   Visibility: 10mi
Dew Point: 10°   Wind: 10mph
Humidity: 77%   Direction: 250°WSW
Pressure: 29.66"   Gusts: 17mph
Location:  42.28°N, 78.23°W
Report Text: KOLE 252035Z AUTO 25009G15KT 10SM OVC032 14/10 A2966 RMK AO2
Loading
Personal Weather Stations






























Interactive Weather Map
Tropical Storm Tracking
New forecast layout! Learn more

10-Day Weather Forecast

Advertisements
Track Severe Weather on mobile